Time;durP1;ratioP1;P1;durP2;ratioP2;P2;SDS_P1;SDS_P2;PMS_P1;PMS_P2;Temp;Humidity;BMP_temperature;BMP_pressure;BME280_temperature;BME280_humidity;BME280_pressure;Samples;Min_cycle;Max_cycle;Signal;HPM_P1;HPM_P2
2022/10/16 00:00:20;;;;;;;1.17;0.70;;;;;19.00;99977.00;;;;2086082;28;20263;-50
2022/10/16 00:01:22;;;;;;;1.40;0.70;;;;;19.00;99975.00;;;;2086288;28;20207;-51
2022/10/16 00:02:23;;;;;;;0.85;0.73;;;;;19.00;99969.00;;;;2085907;28;20855;-51
2022/10/16 00:03:23;;;;;;;1.30;0.90;;;;;19.00;99967.00;;;;2086171;28;20204;-51
2022/10/16 00:04:23;;;;;;;0.90;0.67;;;;;19.00;99962.00;;;;2086067;28;20215;-50
2022/10/16 00:05:24;;;;;;;1.00;0.80;;;;;19.00;99968.00;;;;2086495;28;20212;-51
2022/10/16 00:06:24;;;;;;;1.53;0.80;;;;;19.00;99983.00;;;;2086223;28;20212;-51
2022/10/16 00:07:25;;;;;;;0.90;0.80;;;;;18.90;99985.00;;;;2079534;28;20568;-52
2022/10/16 00:08:25;;;;;;;1.03;0.87;;;;;18.90;99985.00;;;;2076215;28;20209;-52
2022/10/16 00:09:25;;;;;;;0.90;0.77;;;;;19.00;99986.00;;;;2078346;28;20316;-52
2022/10/16 00:10:26;;;;;;;1.17;0.70;;;;;19.00;99989.00;;;;2078523;28;20226;-52
2022/10/16 00:11:36;;;;;;;1.37;0.70;;;;;19.00;99996.00;;;;2078651;28;20231;-51
2022/10/16 00:12:36;;;;;;;1.70;0.80;;;;;19.00;99999.00;;;;2082572;28;20220;-52
2022/10/16 00:13:38;;;;;;;1.30;0.70;;;;;18.90;99990.00;;;;2086094;28;20261;-51
2022/10/16 00:14:40;;;;;;;0.85;0.77;;;;;18.90;99994.00;;;;2085823;28;20259;-51
2022/10/16 00:15:43;;;;;;;1.10;0.82;;;;;18.90;99984.00;;;;2085767;28;20313;-51
2022/10/16 00:16:43;;;;;;;1.13;0.80;;;;;19.00;99988.00;;;;2086548;28;20327;-50
2022/10/16 00:17:43;;;;;;;0.90;0.80;;;;;19.00;99995.00;;;;2086876;28;20235;-51
2022/10/16 00:18:44;;;;;;;2.50;0.90;;;;;19.00;99990.00;;;;2086674;28;20291;-51
2022/10/16 00:19:44;;;;;;;1.30;0.80;;;;;19.00;99987.00;;;;2086670;28;20209;-52
2022/10/16 00:20:44;;;;;;;1.00;0.80;;;;;19.00;99982.00;;;;2086800;28;20208;-50
2022/10/16 00:21:45;;;;;;;0.90;0.60;;;;;18.90;99987.00;;;;2086198;28;20758;-52
2022/10/16 00:22:45;;;;;;;0.80;0.70;;;;;19.00;99981.00;;;;2085983;28;20213;-50
2022/10/16 00:23:45;;;;;;;1.10;0.60;;;;;19.00;99978.00;;;;2086397;28;20204;-52
2022/10/16 00:24:46;;;;;;;1.20;0.80;;;;;19.00;99988.00;;;;2086905;28;20205;-52
2022/10/16 00:25:56;;;;;;;1.17;0.90;;;;;19.00;99992.00;;;;2086412;28;20216;-51
2022/10/16 00:26:57;;;;;;;1.00;0.90;;;;;19.00;99993.00;;;;2086408;28;20219;-52
2022/10/16 00:27:57;;;;;;;1.00;0.77;;;;;19.00;99995.00;;;;2086885;28;20688;-52
2022/10/16 00:28:57;;;;;;;0.70;0.50;;;;;19.00;99990.00;;;;2085758;28;20228;-51
2022/10/16 00:29:57;;;;;;;0.93;0.60;;;;;19.00;100007.00;;;;2085988;28;20306;-52
2022/10/16 00:30:58;;;;;;;1.00;0.80;;;;;19.00;99998.00;;;;2086098;28;20216;-51
2022/10/16 00:31:58;;;;;;;0.90;0.70;;;;;19.00;100000.00;;;;2085081;28;20219;-50
2022/10/16 00:32:58;;;;;;;1.13;0.80;;;;;18.90;99997.00;;;;2085632;28;20224;-51
2022/10/16 00:34:00;;;;;;;0.93;0.70;;;;;19.00;99985.00;;;;2086115;28;20227;-52
2022/10/16 00:35:00;;;;;;;0.70;0.50;;;;;19.00;99990.00;;;;2086288;28;20220;-51
2022/10/16 00:36:01;;;;;;;1.20;0.70;;;;;19.00;99988.00;;;;2086275;28;20218;-52
2022/10/16 00:37:02;;;;;;;0.90;0.70;;;;;19.00;99998.00;;;;2085495;28;20276;-52
2022/10/16 00:38:02;;;;;;;0.75;0.55;;;;;18.90;99996.00;;;;2085328;28;20753;-49
2022/10/16 00:39:03;;;;;;;1.50;0.97;;;;;19.00;99994.00;;;;2085472;28;20223;-51
2022/10/16 00:40:03;;;;;;;1.10;0.70;;;;;19.00;99991.00;;;;2079144;28;20242;-51
2022/10/16 00:41:05;;;;;;;0.90;0.70;;;;;19.00;99996.00;;;;2094028;28;20216;-51
2022/10/16 00:42:05;;;;;;;0.80;0.60;;;;;18.90;99995.00;;;;2090260;28;20212;-51
2022/10/16 00:43:40;;;;;;;1.77;0.73;;;;;19.00;99995.00;;;;2085926;28;20667;-52
2022/10/16 00:44:43;;;;;;;1.60;0.85;;;;;19.00;99998.00;;;;2077373;28;20695;-50
2022/10/16 00:45:43;;;;;;;1.00;0.70;;;;;19.00;100009.00;;;;2078193;28;20285;-52
2022/10/16 00:46:43;;;;;;;1.53;0.80;;;;;19.00;99997.00;;;;2078336;28;20287;-52
2022/10/16 00:47:45;;;;;;;0.80;0.70;;;;;19.00;100001.00;;;;2078476;28;20204;-52
2022/10/16 00:48:52;;;;;;;1.10;0.70;;;;;19.00;99996.00;;;;2077622;28;20217;-51
2022/10/16 00:49:56;;;;;;;1.30;0.70;;;;;19.00;99994.00;;;;2082586;28;20221;-50
2022/10/16 00:50:57;;;;;;;1.05;0.80;;;;;19.00;99999.00;;;;2077969;28;20229;-52
2022/10/16 00:51:58;;;;;;;1.20;1.10;;;;;18.90;99981.00;;;;2069094;28;20222;-51
2022/10/16 00:52:58;;;;;;;0.90;0.60;;;;;19.00;99992.00;;;;2074836;28;21298;-52
2022/10/16 00:53:59;;;;;;;0.90;0.60;;;;;18.90;99997.00;;;;2085134;28;20231;-50
2022/10/16 00:55:00;;;;;;;1.07;0.87;;;;;19.00;100002.00;;;;2086040;28;20312;-52
2022/10/16 00:56:00;;;;;;;0.90;0.60;;;;;18.90;100002.00;;;;2085948;28;20463;-52
2022/10/16 00:57:03;;;;;;;1.10;0.70;;;;;19.00;100001.00;;;;2085628;28;20258;-50
2022/10/16 00:58:03;;;;;;;1.15;1.00;;;;;19.00;100004.00;;;;2076211;28;20220;-52
2022/10/16 00:59:04;;;;;;;1.10;0.73;;;;;19.00;100000.00;;;;2069614;28;20218;-51
2022/10/16 01:00:07;;;;;;;0.82;0.70;;;;;19.00;100002.00;;;;2075363;28;20287;-52
2022/10/16 01:01:07;;;;;;;1.67;0.75;;;;;19.00;100008.00;;;;2082232;28;20209;-49
2022/10/16 01:02:11;;;;;;;1.17;0.87;;;;;18.90;99998.00;;;;2085029;28;20512;-50
2022/10/16 01:03:31;;;;;;;0.85;0.60;;;;;18.90;99991.00;;;;2087501;28;20303;-50
2022/10/16 01:04:35;;;;;;;0.90;0.68;;;;;18.90;99988.00;;;;2087040;28;20240;-51
2022/10/16 01:05:40;;;;;;;0.95;0.70;;;;;18.90;99989.00;;;;2079461;28;20741;-52
2022/10/16 01:06:59;;;;;;;1.33;0.70;;;;;18.90;99988.00;;;;2086787;28;20282;-52
2022/10/16 01:08:18;;;;;;;1.08;0.75;;;;;19.00;99987.00;;;;2067581;28;20238;-51
2022/10/16 01:09:36;;;;;;;1.13;0.70;;;;;19.00;99992.00;;;;2068968;28;20209;-52
2022/10/16 01:10:57;;;;;;;0.90;0.77;;;;;18.90;99991.00;;;;2078855;28;20213;-52
2022/10/16 01:12:04;;;;;;;1.50;0.88;;;;;19.00;99987.00;;;;2078015;28;20719;-52
2022/10/16 01:13:06;;;;;;;1.20;0.63;;;;;19.00;99995.00;;;;2079897;28;20233;-52
2022/10/16 01:14:14;;;;;;;1.27;0.90;;;;;18.90;99999.00;;;;2079203;28;20966;-52
2022/10/16 01:15:20;;;;;;;0.90;0.60;;;;;18.90;99992.00;;;;2087536;28;20240;-49
2022/10/16 01:16:36;;;;;;;0.90;0.60;;;;;18.90;99999.00;;;;2079416;28;20213;-52
2022/10/16 01:17:51;;;;;;;0.93;0.65;;;;;18.90;99996.00;;;;2087280;28;20668;-52
2022/10/16 01:18:57;;;;;;;1.10;0.50;;;;;18.90;100001.00;;;;2085231;28;20307;-53
2022/10/16 01:20:06;;;;;;;0.85;0.80;;;;;19.00;100000.00;;;;2086709;28;20212;-52
2022/10/16 01:21:09;;;;;;;0.70;0.52;;;;;19.00;100005.00;;;;2084522;28;20993;-51
2022/10/16 01:22:10;;;;;;;0.90;0.65;;;;;18.90;100008.00;;;;2078538;28;20299;-51
2022/10/16 01:23:20;;;;;;;1.03;0.50;;;;;19.00;100009.00;;;;2078967;28;20209;-49
2022/10/16 01:24:39;;;;;;;0.80;0.60;;;;;18.90;99999.00;;;;2078496;28;20221;-52
2022/10/16 01:26:01;;;;;;;0.82;0.63;;;;;19.00;100010.00;;;;2075746;28;20596;-51
2022/10/16 01:27:25;;;;;;;0.90;0.75;;;;;18.90;100006.00;;;;2077239;28;20379;-52
2022/10/16 01:28:28;;;;;;;1.35;0.60;;;;;19.00;100000.00;;;;2077572;28;20208;-52
2022/10/16 01:29:36;;;;;;;1.00;0.73;;;;;19.00;100003.00;;;;2067569;28;20217;-50
2022/10/16 01:30:37;;;;;;;0.90;0.80;;;;;18.90;99992.00;;;;2066621;28;20250;-51
2022/10/16 01:31:39;;;;;;;1.20;0.80;;;;;19.00;100027.00;;;;2070390;28;20218;-50
2022/10/16 01:32:57;;;;;;;0.80;0.60;;;;;18.90;100001.00;;;;2077845;28;20799;-52
2022/10/16 01:34:03;;;;;;;0.80;0.70;;;;;19.00;99992.00;;;;2075896;28;20224;-50
2022/10/16 01:35:07;;;;;;;1.45;0.70;;;;;19.00;99987.00;;;;2065760;28;20301;-52
2022/10/16 01:36:13;;;;;;;1.23;0.80;;;;;19.00;99999.00;;;;2069980;28;20309;-50
2022/10/16 01:37:16;;;;;;;0.82;0.65;;;;;18.90;99998.00;;;;2063086;28;20270;-50
2022/10/16 01:38:36;;;;;;;0.70;0.50;;;;;18.90;99998.00;;;;2055488;28;20219;-52
2022/10/16 01:39:38;;;;;;;1.30;0.73;;;;;19.00;99999.00;;;;2077030;28;20738;-52
2022/10/16 01:40:39;;;;;;;2.47;0.75;;;;;19.00;100002.00;;;;2070947;28;20224;-51
2022/10/16 01:41:44;;;;;;;0.70;0.50;;;;;19.00;100000.00;;;;2070976;28;20214;-51
2022/10/16 01:42:57;;;;;;;1.02;0.80;;;;;18.90;99995.00;;;;2078799;28;20250;-52
2022/10/16 01:44:23;;;;;;;1.00;0.70;;;;;18.90;99981.00;;;;2071902;28;20272;-51
2022/10/16 01:45:23;;;;;;;1.00;0.65;;;;;18.90;99998.00;;;;2074447;28;20668;-52
2022/10/16 01:46:23;;;;;;;1.00;0.70;;;;;18.90;100001.00;;;;2081588;28;20230;-52
2022/10/16 01:47:24;;;;;;;1.00;0.70;;;;;19.00;100003.00;;;;2078444;28;20213;-51
2022/10/16 01:48:25;;;;;;;0.70;0.63;;;;;19.00;100006.00;;;;2077998;28;20244;-52
2022/10/16 01:49:27;;;;;;;1.17;0.60;;;;;18.90;99978.00;;;;2078772;28;20939;-52
2022/10/16 01:50:27;;;;;;;0.70;0.50;;;;;18.90;99978.00;;;;2071034;28;20336;-51
2022/10/16 01:51:27;;;;;;;1.00;0.83;;;;;18.90;99969.00;;;;2070818;28;20633;-50
2022/10/16 01:52:28;;;;;;;1.00;0.90;;;;;18.90;99977.00;;;;2069649;28;20221;-50
2022/10/16 01:53:28;;;;;;;1.03;0.80;;;;;19.00;99994.00;;;;2070853;28;20253;-50
2022/10/16 01:54:29;;;;;;;1.13;0.60;;;;;18.90;99996.00;;;;2078410;28;20240;-52
2022/10/16 01:55:32;;;;;;;1.00;0.77;;;;;19.00;100002.00;;;;2078826;28;20214;-52
2022/10/16 01:56:32;;;;;;;1.15;0.70;;;;;19.00;100001.00;;;;2070726;28;20469;-50
2022/10/16 01:57:33;;;;;;;1.03;0.63;;;;;18.90;99996.00;;;;2078485;28;20205;-52
2022/10/16 01:58:35;;;;;;;0.90;0.70;;;;;19.00;99970.00;;;;2086760;28;20208;-52
2022/10/16 01:59:42;;;;;;;1.20;0.50;;;;;18.90;99975.00;;;;2086770;28;20242;-52
2022/10/16 02:00:44;;;;;;;0.90;0.60;;;;;19.00;99987.00;;;;2086123;28;20223;-50
2022/10/16 02:01:47;;;;;;;0.70;0.52;;;;;19.00;99991.00;;;;2086246;28;20307;-50
2022/10/16 02:02:49;;;;;;;0.80;0.60;;;;;19.00;99999.00;;;;2070707;28;20273;-51
2022/10/16 02:03:52;;;;;;;1.00;0.60;;;;;18.90;100000.00;;;;2079208;28;20221;-52
2022/10/16 02:05:08;;;;;;;0.90;0.60;;;;;18.90;100013.00;;;;2086589;28;20230;-50
2022/10/16 02:06:08;;;;;;;1.00;0.80;;;;;19.00;100003.00;;;;2078514;28;20278;-51
2022/10/16 02:07:09;;;;;;;1.03;0.70;;;;;19.00;100002.00;;;;2071197;28;20300;-49
2022/10/16 02:08:09;;;;;;;0.90;0.57;;;;;19.00;100009.00;;;;2078403;28;20217;-50
2022/10/16 02:09:09;;;;;;;0.80;0.60;;;;;18.90;100003.00;;;;2078763;28;20235;-52
2022/10/16 02:10:10;;;;;;;0.90;0.70;;;;;19.00;100010.00;;;;2078347;28;20245;-52
2022/10/16 02:11:10;;;;;;;0.80;0.60;;;;;19.00;99987.00;;;;2086926;28;20890;-51
2022/10/16 02:12:26;;;;;;;1.00;0.73;;;;;18.90;100007.00;;;;2085988;28;20251;-52
2022/10/16 02:13:50;;;;;;;0.90;0.80;;;;;19.00;100003.00;;;;2079880;28;20216;-50
2022/10/16 02:14:51;;;;;;;1.08;0.63;;;;;18.90;100013.00;;;;2078939;28;20700;-52
2022/10/16 02:15:51;;;;;;;1.03;0.63;;;;;19.00;100013.00;;;;2078692;28;20225;-52
2022/10/16 02:16:51;;;;;;;0.93;0.83;;;;;18.90;100006.00;;;;2078572;28;20210;-52
2022/10/16 02:17:52;;;;;;;1.40;0.80;;;;;18.90;100013.00;;;;2078398;28;21007;-52
2022/10/16 02:18:52;;;;;;;0.90;0.60;;;;;18.90;100003.00;;;;2079130;28;20712;-51
2022/10/16 02:19:53;;;;;;;0.87;0.60;;;;;18.90;99999.00;;;;2079229;28;20961;-52
2022/10/16 02:20:59;;;;;;;0.80;0.70;;;;;18.90;99999.00;;;;2078545;28;20304;-51
2022/10/16 02:22:02;;;;;;;0.80;0.50;;;;;18.90;99988.00;;;;2077393;28;20224;-52
2022/10/16 02:23:02;;;;;;;0.90;0.70;;;;;18.90;99991.00;;;;2078463;28;20225;-52
2022/10/16 02:24:10;;;;;;;1.00;0.70;;;;;18.90;99998.00;;;;2070621;28;20226;-52
2022/10/16 02:25:15;;;;;;;0.80;0.77;;;;;18.90;100000.00;;;;2071420;28;20224;-52
2022/10/16 02:26:18;;;;;;;1.02;0.70;;;;;18.90;99999.00;;;;2063740;28;20221;-52
2022/10/16 02:27:50;;;;;;;0.90;0.65;;;;;19.00;100007.00;;;;2063007;28;20219;-50
2022/10/16 02:28:53;;;;;;;1.00;0.70;;;;;18.90;100004.00;;;;2081561;28;20233;-52
2022/10/16 02:30:19;;;;;;;0.85;0.68;;;;;18.90;99999.00;;;;2081281;28;20213;-52
2022/10/16 02:31:23;;;;;;;1.20;0.77;;;;;18.90;99985.00;;;;2073558;28;20224;-51
2022/10/16 02:32:23;;;;;;;0.90;0.65;;;;;18.90;100006.00;;;;2062517;28;20215;-52
2022/10/16 02:33:23;;;;;;;0.87;0.63;;;;;18.90;100003.00;;;;2070387;28;20218;-52
2022/10/16 02:34:24;;;;;;;1.07;0.87;;;;;19.00;99990.00;;;;2078290;28;20213;-52
2022/10/16 02:35:24;;;;;;;1.10;0.80;;;;;18.90;99993.00;;;;2070280;28;20241;-50
2022/10/16 02:36:25;;;;;;;0.83;0.70;;;;;18.90;100008.00;;;;2062010;28;20603;-50
2022/10/16 02:37:25;;;;;;;0.80;0.63;;;;;18.90;100010.00;;;;2069497;28;20727;-52
2022/10/16 02:38:26;;;;;;;0.80;0.57;;;;;19.00;100008.00;;;;2078078;28;20466;-52
2022/10/16 02:39:27;;;;;;;0.80;0.60;;;;;19.00;100006.00;;;;2082756;28;20213;-52
2022/10/16 02:40:28;;;;;;;0.80;0.60;;;;;18.90;100009.00;;;;2077907;28;20261;-51
2022/10/16 02:41:28;;;;;;;0.90;0.70;;;;;19.00;100005.00;;;;2084986;28;20224;-51
2022/10/16 02:42:32;;;;;;;0.80;0.60;;;;;18.90;100011.00;;;;2085243;28;20224;-52
2022/10/16 02:43:33;;;;;;;0.73;0.60;;;;;18.90;100008.00;;;;2084739;28;20220;-50
2022/10/16 02:44:34;;;;;;;0.98;0.68;;;;;19.00;100007.00;;;;2078962;28;20221;-51
2022/10/16 02:45:34;;;;;;;0.97;0.60;;;;;18.90;100007.00;;;;2079161;28;20233;-52
2022/10/16 02:46:34;;;;;;;1.17;0.60;;;;;18.90;100014.00;;;;2078837;28;20214;-51
2022/10/16 02:47:35;;;;;;;1.17;0.70;;;;;18.90;100006.00;;;;2078977;28;20220;-50
2022/10/16 02:48:35;;;;;;;1.20;0.87;;;;;19.00;100007.00;;;;2079033;28;20234;-50
2022/10/16 02:49:36;;;;;;;0.93;0.60;;;;;18.90;100005.00;;;;2078533;28;20713;-52
2022/10/16 02:50:36;;;;;;;0.77;0.63;;;;;18.90;100007.00;;;;2084442;28;20246;-52
2022/10/16 02:51:36;;;;;;;0.70;0.60;;;;;18.90;100011.00;;;;2087323;28;20208;-52
2022/10/16 02:52:36;;;;;;;0.90;0.70;;;;;18.90;100005.00;;;;2086398;28;20258;-52
2022/10/16 02:53:37;;;;;;;1.20;0.63;;;;;18.90;100004.00;;;;2086731;28;20232;-52
2022/10/16 02:54:37;;;;;;;2.03;0.70;;;;;19.00;100012.00;;;;2086671;28;20267;-52
2022/10/16 02:55:38;;;;;;;1.10;0.70;;;;;18.90;100011.00;;;;2087163;28;20212;-52
2022/10/16 02:56:38;;;;;;;1.30;0.73;;;;;18.90;100010.00;;;;2083798;28;20922;-50
2022/10/16 02:57:40;;;;;;;0.90;0.60;;;;;19.00;100007.00;;;;2079065;28;20714;-51
2022/10/16 02:58:40;;;;;;;0.80;0.60;;;;;18.90;99996.00;;;;2079883;28;20205;-50
2022/10/16 02:59:40;;;;;;;0.70;0.50;;;;;19.00;100010.00;;;;2086732;28;20208;-51
2022/10/16 03:00:41;;;;;;;0.90;0.50;;;;;18.90;100009.00;;;;2086298;28;20205;-51
2022/10/16 03:01:42;;;;;;;0.80;0.50;;;;;18.90;100010.00;;;;2084577;28;20212;-51
2022/10/16 03:02:42;;;;;;;0.97;0.63;;;;;18.90;100000.00;;;;2086630;28;20293;-51
2022/10/16 03:03:43;;;;;;;0.80;0.60;;;;;18.90;100015.00;;;;2081508;28;20220;-50
2022/10/16 03:04:43;;;;;;;1.00;0.67;;;;;18.90;100014.00;;;;2077206;28;20202;-51
2022/10/16 03:05:45;;;;;;;0.80;0.60;;;;;18.90;100001.00;;;;2078980;28;20247;-51
2022/10/16 03:06:45;;;;;;;0.90;0.70;;;;;18.90;100009.00;;;;2078171;28;20684;-51
2022/10/16 03:07:46;;;;;;;0.87;0.60;;;;;18.90;100012.00;;;;2078106;28;20229;-50
2022/10/16 03:08:46;;;;;;;1.10;0.80;;;;;18.90;100013.00;;;;2079012;28;20209;-51
2022/10/16 03:09:47;;;;;;;0.90;0.60;;;;;18.90;100010.00;;;;2085807;28;20616;-51
2022/10/16 03:10:47;;;;;;;0.80;0.63;;;;;19.00;100012.00;;;;2087232;28;20616;-51
2022/10/16 03:11:48;;;;;;;1.00;0.50;;;;;18.90;100011.00;;;;2086549;28;20209;-51
2022/10/16 03:12:48;;;;;;;0.87;0.60;;;;;18.90;100022.00;;;;2086393;28;20250;-50
2022/10/16 03:13:48;;;;;;;0.70;0.57;;;;;19.00;100017.00;;;;2078660;28;20217;-50
2022/10/16 03:14:49;;;;;;;1.07;0.60;;;;;18.90;100019.00;;;;2078659;28;20217;-52
2022/10/16 03:15:49;;;;;;;1.23;0.70;;;;;18.90;100024.00;;;;2078653;28;20228;-50
2022/10/16 03:16:50;;;;;;;0.90;0.60;;;;;18.90;100005.00;;;;2085157;28;20236;-51
2022/10/16 03:17:50;;;;;;;1.13;0.70;;;;;18.90;100017.00;;;;2087128;28;20212;-51
2022/10/16 03:18:50;;;;;;;1.03;0.77;;;;;19.00;100021.00;;;;2087101;28;20220;-51
2022/10/16 03:19:51;;;;;;;1.10;0.57;;;;;19.00;100025.00;;;;2086708;28;20213;-50
2022/10/16 03:20:51;;;;;;;1.00;0.60;;;;;18.90;100017.00;;;;2087048;28;20223;-51
2022/10/16 03:21:51;;;;;;;1.17;0.80;;;;;18.90;100022.00;;;;2086235;28;20708;-51
2022/10/16 03:22:52;;;;;;;1.00;0.60;;;;;19.00;100008.00;;;;2078874;28;20709;-51
2022/10/16 03:23:52;;;;;;;0.70;0.50;;;;;18.90;100019.00;;;;2077971;28;20714;-51
2022/10/16 03:24:52;;;;;;;1.40;0.70;;;;;18.90;100019.00;;;;2077070;28;20812;-51
2022/10/16 03:25:53;;;;;;;1.10;0.60;;;;;18.90;100014.00;;;;2084290;28;20678;-51
2022/10/16 03:26:54;;;;;;;1.02;0.80;;;;;18.90;100011.00;;;;2086184;28;20223;-51
2022/10/16 03:27:54;;;;;;;0.80;0.60;;;;;18.90;100011.00;;;;2086388;28;20510;-51
2022/10/16 03:28:54;;;;;;;0.97;0.60;;;;;18.90;100017.00;;;;2085920;28;20224;-51
2022/10/16 03:29:55;;;;;;;1.00;0.57;;;;;18.70;100012.00;;;;2085901;28;20263;-50
2022/10/16 03:30:55;;;;;;;1.03;0.60;;;;;19.00;100023.00;;;;2085528;28;20224;-50
2022/10/16 03:31:56;;;;;;;0.80;0.60;;;;;18.90;100016.00;;;;2085301;28;20232;-51
2022/10/16 03:32:56;;;;;;;1.43;0.80;;;;;18.90;100009.00;;;;2086314;28;20293;-51
2022/10/16 03:33:56;;;;;;;1.00;0.70;;;;;18.90;100004.00;;;;2084160;28;20454;-51
2022/10/16 03:34:57;;;;;;;0.80;0.50;;;;;18.90;100006.00;;;;2086349;28;20216;-51
2022/10/16 03:35:57;;;;;;;0.80;0.50;;;;;18.90;100007.00;;;;2086611;28;20278;-51
2022/10/16 03:36:57;;;;;;;0.70;0.53;;;;;18.90;100008.00;;;;2085539;28;20224;-51
2022/10/16 03:37:58;;;;;;;0.80;0.60;;;;;19.00;100012.00;;;;2085635;28;20217;-51
2022/10/16 03:38:58;;;;;;;0.90;0.60;;;;;18.90;100014.00;;;;2086560;28;20282;-50
2022/10/16 03:39:59;;;;;;;0.90;0.67;;;;;18.90;100016.00;;;;2086004;28;20212;-51
2022/10/16 03:40:59;;;;;;;0.70;0.50;;;;;18.90;100014.00;;;;2086442;28;20228;-51
2022/10/16 03:41:59;;;;;;;1.00;0.80;;;;;18.90;100012.00;;;;2085551;28;20302;-51
2022/10/16 03:43:00;;;;;;;0.70;0.50;;;;;18.70;100014.00;;;;2086244;28;20212;-51
2022/10/16 03:44:00;;;;;;;0.70;0.60;;;;;18.90;100020.00;;;;2082562;28;20231;-51
2022/10/16 03:45:01;;;;;;;1.30;0.80;;;;;19.00;100027.00;;;;2077577;28;20213;-50
2022/10/16 03:46:01;;;;;;;1.00;0.63;;;;;18.90;100025.00;;;;2078391;28;20223;-51
2022/10/16 03:47:01;;;;;;;0.70;0.50;;;;;18.90;100022.00;;;;2077988;28;20495;-51
2022/10/16 03:48:03;;;;;;;0.80;0.53;;;;;18.90;100026.00;;;;2078186;28;20307;-52
2022/10/16 03:49:03;;;;;;;1.00;0.80;;;;;18.90;100024.00;;;;2078112;28;20320;-51
2022/10/16 03:50:04;;;;;;;0.80;0.60;;;;;18.90;100019.00;;;;2078313;28;20260;-51
2022/10/16 03:51:04;;;;;;;0.80;0.60;;;;;18.90;100021.00;;;;2078221;28;20259;-50
2022/10/16 03:52:05;;;;;;;0.90;0.60;;;;;18.90;100028.00;;;;2077721;28;20547;-50
2022/10/16 03:53:05;;;;;;;1.00;0.70;;;;;18.90;100036.00;;;;2078525;28;20225;-50
2022/10/16 03:54:05;;;;;;;0.80;0.53;;;;;18.90;100034.00;;;;2078563;28;20228;-51
2022/10/16 03:55:06;;;;;;;0.80;0.60;;;;;18.90;100023.00;;;;2078748;28;20631;-52
2022/10/16 03:56:07;;;;;;;1.20;0.70;;;;;18.90;100028.00;;;;2078420;28;20295;-50
2022/10/16 03:57:07;;;;;;;0.60;0.50;;;;;18.90;100015.00;;;;2078524;28;20462;-51
2022/10/16 03:59:10;;;;;;;1.10;0.75;;;;;18.90;100015.00;;;;2064697;28;20946;-54
2022/10/16 04:00:11;;;;;;;0.80;0.70;;;;;19.00;100014.00;;;;2075914;28;20205;-54
2022/10/16 04:01:12;;;;;;;0.80;0.52;;;;;18.90;100016.00;;;;2059554;28;20215;-52
2022/10/16 04:02:12;;;;;;;0.70;0.60;;;;;18.90;100019.00;;;;2046714;28;20212;-51
2022/10/16 04:03:13;;;;;;;1.20;0.67;;;;;18.90;100024.00;;;;2053656;28;20217;-51
2022/10/16 04:04:13;;;;;;;1.00;0.73;;;;;18.90;100039.00;;;;2061826;28;20294;-50
2022/10/16 04:05:14;;;;;;;0.90;0.70;;;;;18.90;100025.00;;;;2058123;28;20365;-51
2022/10/16 04:06:16;;;;;;;1.13;0.68;;;;;18.90;100028.00;;;;2050853;28;20773;-53
2022/10/16 04:07:17;;;;;;;0.90;0.60;;;;;19.00;100024.00;;;;2056817;28;20210;-51
2022/10/16 04:08:18;;;;;;;0.83;0.60;;;;;19.00;100032.00;;;;2061709;28;20245;-51
2022/10/16 04:09:18;;;;;;;0.77;0.60;;;;;18.90;100030.00;;;;2071339;28;20753;-51
2022/10/16 04:10:19;;;;;;;1.10;0.73;;;;;18.90;100032.00;;;;2078361;28;20482;-51
2022/10/16 04:11:19;;;;;;;0.80;0.60;;;;;18.90;100036.00;;;;2078487;28;20262;-51
2022/10/16 04:12:19;;;;;;;0.70;0.50;;;;;18.90;100027.00;;;;2077582;28;20233;-51
2022/10/16 04:13:20;;;;;;;1.03;0.60;;;;;18.90;100024.00;;;;2078245;28;20221;-51
2022/10/16 04:14:20;;;;;;;1.07;0.67;;;;;19.00;100032.00;;;;2078137;28;20225;-51
2022/10/16 04:15:20;;;;;;;1.07;0.67;;;;;19.00;100041.00;;;;2078299;28;20371;-51
2022/10/16 04:16:20;;;;;;;0.80;0.57;;;;;18.90;100047.00;;;;2078191;28;20217;-51
2022/10/16 04:17:21;;;;;;;0.70;0.40;;;;;18.90;100024.00;;;;2078200;28;20287;-51
2022/10/16 04:18:21;;;;;;;0.87;0.50;;;;;19.00;100048.00;;;;2078289;28;20684;-51
2022/10/16 04:19:22;;;;;;;0.70;0.50;;;;;18.50;100046.00;;;;2078269;28;20223;-50
2022/10/16 04:20:22;;;;;;;0.80;0.60;;;;;19.00;100046.00;;;;2078432;28;20213;-51
2022/10/16 04:21:22;;;;;;;1.23;0.77;;;;;18.90;100053.00;;;;2078231;28;20236;-50
2022/10/16 04:22:23;;;;;;;0.90;0.60;;;;;18.90;100044.00;;;;2077709;28;20271;-50
2022/10/16 04:23:23;;;;;;;1.00;0.60;;;;;18.90;100045.00;;;;2078419;28;20233;-51
2022/10/16 04:24:23;;;;;;;1.00;0.50;;;;;18.90;100055.00;;;;2078217;28;20214;-51
2022/10/16 04:25:24;;;;;;;1.00;0.57;;;;;19.00;100052.00;;;;2078442;28;20221;-50
2022/10/16 04:26:24;;;;;;;0.70;0.50;;;;;18.60;100044.00;;;;2078356;28;20454;-50
2022/10/16 04:27:25;;;;;;;1.00;0.70;;;;;18.90;100046.00;;;;2078081;28;20580;-51
2022/10/16 04:28:25;;;;;;;0.90;0.70;;;;;18.90;100037.00;;;;2069462;28;20742;-51
2022/10/16 04:29:25;;;;;;;0.83;0.57;;;;;18.90;100051.00;;;;2069377;28;20238;-50
2022/10/16 04:30:26;;;;;;;0.70;0.60;;;;;19.00;100046.00;;;;2078252;28;20210;-50
2022/10/16 04:31:26;;;;;;;0.70;0.60;;;;;18.90;100048.00;;;;2078443;28;20212;-51
2022/10/16 04:32:26;;;;;;;0.90;0.60;;;;;18.90;100065.00;;;;2077212;28;20217;-51
2022/10/16 04:33:27;;;;;;;1.00;0.77;;;;;18.90;100061.00;;;;2078515;28;20214;-50
2022/10/16 04:34:27;;;;;;;0.90;0.60;;;;;18.90;100059.00;;;;2078187;28;20693;-51
2022/10/16 04:35:27;;;;;;;0.80;0.73;;;;;18.90;100060.00;;;;2078434;28;20677;-51
2022/10/16 04:36:28;;;;;;;0.77;0.70;;;;;18.90;100064.00;;;;2078161;28;20271;-51
2022/10/16 04:37:28;;;;;;;1.00;0.60;;;;;18.90;100073.00;;;;2079531;28;20205;-50
2022/10/16 04:38:28;;;;;;;0.80;0.60;;;;;18.90;100059.00;;;;2079692;28;20204;-50
2022/10/16 04:39:29;;;;;;;1.00;0.70;;;;;19.00;100083.00;;;;2079593;28;20236;-50
2022/10/16 04:40:32;;;;;;;0.77;0.60;;;;;19.00;100064.00;;;;2074362;28;20678;-51
2022/10/16 04:41:32;;;;;;;1.33;0.70;;;;;18.90;100067.00;;;;2062768;28;20214;-50
2022/10/16 04:42:33;;;;;;;0.80;0.57;;;;;18.90;100062.00;;;;2066250;28;20302;-50
2022/10/16 04:43:33;;;;;;;0.90;0.60;;;;;19.00;100062.00;;;;2078260;28;20210;-50
2022/10/16 04:44:33;;;;;;;1.40;0.80;;;;;19.00;100073.00;;;;2071644;28;20210;-50
2022/10/16 04:45:34;;;;;;;1.07;0.60;;;;;19.00;100078.00;;;;2071716;28;20210;-50
2022/10/16 04:46:34;;;;;;;1.10;0.60;;;;;18.90;100080.00;;;;2071456;28;20221;-50
2022/10/16 04:47:34;;;;;;;0.70;0.60;;;;;18.90;100075.00;;;;2062121;28;20219;-51
2022/10/16 04:48:35;;;;;;;0.70;0.50;;;;;18.90;100074.00;;;;2062848;28;20239;-51
2022/10/16 04:49:35;;;;;;;1.00;0.50;;;;;19.00;100078.00;;;;2071507;28;20210;-50
2022/10/16 04:50:35;;;;;;;0.73;0.60;;;;;18.90;100076.00;;;;2071699;28;20233;-50
2022/10/16 04:51:36;;;;;;;0.90;0.57;;;;;18.90;100075.00;;;;2071491;28;20245;-50
2022/10/16 04:52:36;;;;;;;0.80;0.50;;;;;18.90;100067.00;;;;2070331;28;20214;-50
2022/10/16 04:53:36;;;;;;;0.90;0.60;;;;;18.90;100073.00;;;;2071711;28;20217;-51
2022/10/16 04:54:37;;;;;;;0.97;0.70;;;;;19.00;100065.00;;;;2071423;28;20284;-50
2022/10/16 04:55:37;;;;;;;0.90;0.50;;;;;19.00;100073.00;;;;2071693;28;20202;-50
2022/10/16 04:56:45;;;;;;;0.87;0.50;;;;;19.00;100077.00;;;;2071437;28;20225;-50
2022/10/16 04:57:46;;;;;;;1.02;0.68;;;;;18.90;100086.00;;;;2071418;28;20749;-50
2022/10/16 04:58:46;;;;;;;0.60;0.50;;;;;19.00;100082.00;;;;2071375;28;20229;-50
2022/10/16 04:59:47;;;;;;;1.37;0.60;;;;;18.90;100082.00;;;;2071447;28;20221;-51
2022/10/16 05:00:47;;;;;;;0.80;0.60;;;;;19.00;100087.00;;;;2071660;28;20236;-51
2022/10/16 05:01:47;;;;;;;1.03;0.70;;;;;18.90;100087.00;;;;2069881;28;20210;-51
2022/10/16 05:02:50;;;;;;;0.90;0.70;;;;;18.90;100090.00;;;;2071194;28;20225;-50
2022/10/16 05:03:50;;;;;;;0.60;0.40;;;;;18.90;100086.00;;;;2079126;28;20243;-51
2022/10/16 05:04:51;;;;;;;0.70;0.53;;;;;18.90;100088.00;;;;2079458;28;20564;-51
2022/10/16 05:05:51;;;;;;;1.03;0.70;;;;;18.90;100089.00;;;;2079860;28;20221;-51
2022/10/16 05:06:51;;;;;;;0.93;0.67;;;;;18.90;100098.00;;;;2079888;28;20426;-51
2022/10/16 05:07:52;;;;;;;1.00;0.67;;;;;18.90;100102.00;;;;2087968;28;20223;-50
2022/10/16 05:08:52;;;;;;;0.73;0.50;;;;;18.90;100101.00;;;;2087946;28;20217;-50
2022/10/16 05:09:53;;;;;;;0.87;0.57;;;;;18.90;100103.00;;;;2088145;28;20255;-50
2022/10/16 05:10:53;;;;;;;0.77;0.60;;;;;19.00;100105.00;;;;2087502;28;20209;-51